Lane, Kansas
Current Conditions -  °F | °C
As of 3:53 PM on Sunday 25 Jan 2015 (Local Time) from KIXD Reporting Station
Overcast Overcast  
Wind Chill: 28°   Ceiling: 1900
Heat Index: 38°   Visibility: 10mi
Dew Point: 32°   Wind: 21mph
Humidity: 79%   Direction: 330°NNW
Pressure: 29.98"   Gusts: 26mph
Location:  38.44°N, 95.08°W
Report Text: KIXD 252153Z 33018G23KT 10SM OVC019 03/00 A2998 RMK AO2 PK WND 33029/2120 SLP154 T00330000
Loading
Personal Weather Stations






























Interactive Weather Map New forecast layout! Learn more

10-Day Weather Forecast

Advertisements
Track Severe Weather on mobile